Time;durP1;ratioP1;P1;durP2;ratioP2;P2;SDS_P1;SDS_P2;PMS_P1;PMS_P2;Temp;Humidity;BMP_temperature;BMP_pressure;BME280_temperature;BME280_humidity;BME280_pressure;Samples;Min_cycle;Max_cycle;Signal;HPM_P1;HPM_P2
2023/05/04 00:01:10;;;;;;;9.52;3.78;;;8.60;89.80;;;;;;4991636;28;20044;-87
2023/05/04 00:03:38;;;;;;;9.02;3.60;;;8.60;89.80;;;;;;5008883;28;20034;-87
2023/05/04 00:06:04;;;;;;;10.25;3.83;;;8.60;89.90;;;;;;5008406;28;20042;-86
2023/05/04 00:08:30;;;;;;;8.98;3.50;;;8.60;90.10;;;;;;5008188;28;20419;-87
2023/05/04 00:10:56;;;;;;;9.50;4.00;;;8.60;90.10;;;;;;4992142;28;20063;-87
2023/05/04 00:13:21;;;;;;;12.60;3.60;;;8.50;90.20;;;;;;4991590;28;20711;-87
2023/05/04 00:15:47;;;;;;;10.57;3.80;;;8.50;90.40;;;;;;5008252;28;20042;-87
2023/05/04 00:18:13;;;;;;;12.13;4.00;;;8.50;90.50;;;;;;5008683;28;20080;-87
2023/05/04 00:20:38;;;;;;;10.27;3.70;;;8.50;90.90;;;;;;5007319;28;20153;-86
2023/05/04 00:23:04;;;;;;;11.07;4.32;;;8.40;91.10;;;;;;5007049;28;20056;-86
2023/05/04 00:25:29;;;;;;;9.20;3.75;;;8.50;90.90;;;;;;4991610;28;20053;-86
2023/05/04 00:27:55;;;;;;;9.38;4.40;;;8.40;91.00;;;;;;4991309;28;20056;-87
2023/05/04 00:30:21;;;;;;;9.68;4.03;;;8.40;91.20;;;;;;5008506;28;20096;-87
2023/05/04 00:32:47;;;;;;;9.02;4.05;;;8.40;91.50;;;;;;5012152;28;20038;-87
2023/05/04 00:35:12;;;;;;;11.07;4.35;;;8.40;92.10;;;;;;5012935;28;20038;-87
2023/05/04 00:37:38;;;;;;;9.77;3.92;;;8.30;91.90;;;;;;4996224;28;20406;-87
2023/05/04 00:40:04;;;;;;;11.98;4.43;;;8.30;92.40;;;;;;5011807;28;20128;-88
2023/05/04 00:42:29;;;;;;;11.65;4.03;;;8.30;92.50;;;;;;4996753;28;20049;-87
2023/05/04 00:44:55;;;;;;;10.40;4.45;;;8.30;92.50;;;;;;4996404;28;20495;-87
2023/05/04 00:47:21;;;;;;;10.43;3.67;;;8.20;92.90;;;;;;5004602;28;20034;-87
2023/05/04 00:49:47;;;;;;;11.38;4.90;;;8.20;93.10;;;;;;5025579;28;20038;-88
2023/05/04 00:52:13;;;;;;;11.23;4.68;;;8.20;93.30;;;;;;5011431;28;20535;-87
2023/05/04 00:54:41;;;;;;;9.98;4.32;;;8.20;93.10;;;;;;5012313;28;20041;-87
2023/05/04 00:57:07;;;;;;;12.13;5.10;;;8.20;93.60;;;;;;4995774;28;20555;-88
2023/05/04 00:59:33;;;;;;;9.43;4.43;;;8.20;93.80;;;;;;4995218;28;20603;-87
2023/05/04 01:01:58;;;;;;;12.50;4.85;;;8.20;93.60;;;;;;4995732;28;20060;-87
2023/05/04 01:04:24;;;;;;;14.55;4.53;;;8.20;94.20;;;;;;5011559;28;20026;-87
2023/05/04 01:06:59;;;;;;;10.27;4.07;;;8.10;93.90;;;;;;5011347;28;20033;-88
2023/05/04 01:09:27;;;;;;;15.93;5.20;;;8.10;94.00;;;;;;5011812;28;20391;-87
2023/05/04 01:12:07;;;;;;;10.52;4.40;;;8.10;93.80;;;;;;5011534;28;20041;-87
2023/05/04 01:14:34;;;;;;;12.05;4.95;;;8.10;94.10;;;;;;4995419;28;20077;-87
2023/05/04 01:17:03;;;;;;;9.20;4.22;;;8.10;94.20;;;;;;4995051;28;20037;-87
2023/05/04 01:19:28;;;;;;;12.50;4.55;;;8.10;94.80;;;;;;4995578;28;20038;-87
2023/05/04 01:21:55;;;;;;;11.27;4.63;;;8.10;94.40;;;;;;4995100;28;20038;-87
2023/05/04 01:24:21;;;;;;;10.82;4.32;;;8.00;95.30;;;;;;5011743;28;20068;-87
2023/05/04 01:26:50;;;;;;;10.32;4.55;;;8.00;95.30;;;;;;4994969;28;20048;-87
2023/05/04 01:29:40;;;;;;;13.55;4.15;;;8.00;95.40;;;;;;5011237;28;20675;-87
2023/05/04 01:32:07;;;;;;;11.35;4.22;;;8.00;95.30;;;;;;4990005;28;20060;-87
2023/05/04 01:34:35;;;;;;;10.10;4.40;;;8.00;95.70;;;;;;5011548;28;20069;-87
2023/05/04 01:37:01;;;;;;;10.73;4.43;;;8.00;95.50;;;;;;4995783;28;20045;-87
2023/05/04 01:39:28;;;;;;;12.18;4.78;;;7.90;95.60;;;;;;4995446;28;20038;-87
2023/05/04 01:41:54;;;;;;;11.30;4.72;;;7.90;95.80;;;;;;5011560;28;20049;-87
2023/05/04 01:44:20;;;;;;;12.35;4.95;;;7.90;95.40;;;;;;5011151;28;20115;-87
2023/05/04 01:46:45;;;;;;;10.70;4.65;;;8.00;95.60;;;;;;4995376;28;20065;-87
2023/05/04 01:49:11;;;;;;;10.05;4.35;;;7.90;95.60;;;;;;4994477;28;20040;-87
2023/05/04 01:51:37;;;;;;;11.93;4.53;;;7.90;95.70;;;;;;5011777;28;20045;-86
2023/05/04 01:54:02;;;;;;;11.23;4.70;;;7.90;95.90;;;;;;4995116;28;20037;-87
2023/05/04 01:56:28;;;;;;;11.63;4.82;;;7.90;96.00;;;;;;4994950;28;20041;-86
2023/05/04 01:58:54;;;;;;;10.40;4.63;;;7.90;95.90;;;;;;4995541;28;20040;-87
2023/05/04 02:01:19;;;;;;;10.85;5.13;;;7.90;96.80;;;;;;5011086;28;20077;-87
2023/05/04 02:03:45;;;;;;;12.07;5.07;;;7.90;97.10;;;;;;5011830;28;20049;-87
2023/05/04 02:06:11;;;;;;;13.18;5.20;;;7.90;96.80;;;;;;5011036;28;20128;-86
2023/05/04 02:08:37;;;;;;;9.70;4.25;;;7.90;97.10;;;;;;5010193;28;20041;-87
2023/05/04 02:11:02;;;;;;;12.02;5.07;;;7.80;97.80;;;;;;5011128;28;20052;-86
2023/05/04 02:13:28;;;;;;;14.40;5.45;;;7.80;98.20;;;;;;5010337;28;20511;-87
2023/05/04 02:15:53;;;;;;;13.88;5.40;;;7.80;97.40;;;;;;5010936;28;20080;-87
2023/05/04 02:18:19;;;;;;;12.43;5.10;;;7.80;97.80;;;;;;5010299;28;20479;-86
2023/05/04 02:20:45;;;;;;;12.02;4.85;;;7.90;97.50;;;;;;4993893;28;20046;-86
2023/05/04 02:23:10;;;;;;;14.35;4.82;;;7.80;98.40;;;;;;5010514;28;20084;-86
2023/05/04 02:25:39;;;;;;;10.88;5.10;;;7.80;97.80;;;;;;5009792;28;20139;-86
2023/05/04 02:28:05;;;;;;;15.00;5.47;;;7.80;99.80;;;;;;4994419;28;20099;-86
2023/05/04 02:30:30;;;;;;;13.68;5.75;;;7.80;98.80;;;;;;4993331;28;20389;-87
2023/05/04 02:32:56;;;;;;;12.88;5.40;;;7.80;98.30;;;;;;5010596;28;20030;-87
2023/05/04 02:35:22;;;;;;;10.20;5.10;;;7.80;98.60;;;;;;4993906;28;20558;-87
2023/05/04 02:37:47;;;;;;;12.38;5.00;;;7.80;99.50;;;;;;4994418;28;20041;-87
2023/05/04 02:40:13;;;;;;;14.68;5.47;;;7.80;98.40;;;;;;5010177;28;20050;-87
2023/05/04 02:42:38;;;;;;;10.35;4.88;;;7.80;98.50;;;;;;5010191;28;20393;-87
2023/05/04 02:45:06;;;;;;;13.15;5.30;;;7.80;98.80;;;;;;5010726;28;20042;-87
2023/05/04 02:47:32;;;;;;;24.00;6.93;;;7.80;99.60;;;;;;4993115;28;20050;-87
2023/05/04 02:49:57;;;;;;;10.95;5.13;;;7.80;98.90;;;;;;5009986;28;20042;-87
2023/05/04 02:52:23;;;;;;;16.50;5.50;;;7.80;99.50;;;;;;5009920;28;20065;-86
2023/05/04 02:54:48;;;;;;;12.35;5.53;;;7.80;98.90;;;;;;5010073;28;20415;-87
2023/05/04 02:57:14;;;;;;;16.08;6.22;;;7.70;99.10;;;;;;4993885;28;20045;-87
2023/05/04 02:59:40;;;;;;;9.93;4.72;;;7.70;99.40;;;;;;5009172;28;20041;-87
2023/05/04 03:02:05;;;;;;;13.52;5.60;;;7.70;99.80;;;;;;5009754;28;20464;-87
2023/05/04 03:04:31;;;;;;;13.80;5.35;;;7.70;99.80;;;;;;5009038;28;20483;-87
2023/05/04 03:06:57;;;;;;;12.77;5.38;;;7.70;99.90;;;;;;4993322;28;20034;-87
2023/05/04 03:09:22;;;;;;;10.65;4.85;;;7.70;99.50;;;;;;4993184;28;20046;-87
2023/05/04 03:11:48;;;;;;;12.65;5.38;;;7.70;99.90;;;;;;5009359;28;20120;-86
2023/05/04 03:14:13;;;;;;;13.93;6.10;;;7.70;99.90;;;;;;4993551;28;20042;-87
2023/05/04 03:16:39;;;;;;;10.13;5.13;;;7.70;99.90;;;;;;5008392;28;20564;-87
2023/05/04 03:19:04;;;;;;;12.73;5.60;;;7.70;99.90;;;;;;4993273;28;20033;-87
2023/05/04 03:21:30;;;;;;;13.40;5.55;;;7.70;99.90;;;;;;5008828;28;20091;-87
2023/05/04 03:23:56;;;;;;;11.05;5.18;;;7.70;99.90;;;;;;5009341;28;20041;-87
2023/05/04 03:26:21;;;;;;;13.38;6.00;;;7.70;99.90;;;;;;5008617;28;20112;-87
2023/05/04 03:28:47;;;;;;;11.38;5.25;;;7.60;99.90;;;;;;5009286;28;20073;-87
2023/05/04 03:31:13;;;;;;;11.93;5.13;;;7.70;99.90;;;;;;4992731;28;20041;-87
2023/05/04 03:33:38;;;;;;;11.60;5.45;;;7.70;99.90;;;;;;4992815;28;20046;-87
2023/05/04 03:36:04;;;;;;;14.25;5.60;;;7.70;99.90;;;;;;5009453;28;20041;-87
2023/05/04 03:38:30;;;;;;;12.30;5.35;;;7.60;99.90;;;;;;5008794;28;20033;-87
2023/05/04 03:40:56;;;;;;;13.10;5.80;;;7.60;99.90;;;;;;4992598;28;20061;-87
2023/05/04 03:43:21;;;;;;;12.65;5.80;;;7.70;99.90;;;;;;5009137;28;20717;-87
2023/05/04 03:45:47;;;;;;;15.27;5.13;;;7.60;99.90;;;;;;5008762;28;20191;-87
2023/05/04 03:48:12;;;;;;;14.77;6.45;;;7.70;99.90;;;;;;5009032;28;20057;-87
2023/05/04 03:50:38;;;;;;;14.50;5.43;;;7.60;99.90;;;;;;5009017;28;20045;-87
2023/05/04 03:53:04;;;;;;;13.95;5.60;;;7.70;99.90;;;;;;5000459;28;20026;-87
2023/05/04 03:55:30;;;;;;;13.18;5.90;;;7.70;99.90;;;;;;4991915;28;20091;-87
2023/05/04 03:57:56;;;;;;;13.07;6.15;;;7.60;99.90;;;;;;5008962;28;20033;-87
2023/05/04 04:00:21;;;;;;;13.13;5.90;;;7.60;99.90;;;;;;4992876;28;20195;-87
2023/05/04 04:02:47;;;;;;;15.02;6.25;;;7.60;99.90;;;;;;5009110;28;20747;-87
2023/05/04 04:05:13;;;;;;;11.07;5.10;;;7.60;99.90;;;;;;4992173;28;20392;-87
2023/05/04 04:07:38;;;;;;;15.15;6.03;;;7.60;99.90;;;;;;4992879;28;20585;-88
2023/05/04 04:10:04;;;;;;;12.77;6.03;;;7.60;99.90;;;;;;4992342;28;20034;-87
2023/05/04 04:12:30;;;;;;;14.10;6.15;;;7.60;99.90;;;;;;5009347;28;20038;-87
2023/05/04 04:14:56;;;;;;;16.10;6.38;;;7.60;99.90;;;;;;5008586;28;20529;-87
2023/05/04 04:17:21;;;;;;;13.23;5.88;;;7.60;99.90;;;;;;5008438;28;20030;-87
2023/05/04 04:19:47;;;;;;;12.88;5.55;;;7.60;99.90;;;;;;4992491;28;20125;-87
2023/05/04 04:22:12;;;;;;;16.25;5.85;;;7.60;99.90;;;;;;4982867;28;20042;-86
2023/05/04 04:24:38;;;;;;;14.13;6.05;;;7.60;99.90;;;;;;5008693;28;20034;-87
2023/05/04 04:27:04;;;;;;;12.35;5.75;;;7.60;99.90;;;;;;5007848;28;20450;-87
2023/05/04 04:29:29;;;;;;;11.55;5.28;;;7.60;99.90;;;;;;5008301;28;20101;-86
2023/05/04 04:31:55;;;;;;;12.45;5.50;;;7.60;99.90;;;;;;4992385;28;20458;-87
2023/05/04 04:34:21;;;;;;;12.43;5.95;;;7.60;99.90;;;;;;4992032;28;20491;-86
2023/05/04 04:36:46;;;;;;;13.55;6.07;;;7.60;99.90;;;;;;5009110;28;20088;-87
2023/05/04 04:39:13;;;;;;;13.85;6.20;;;7.60;99.90;;;;;;4986644;28;20504;-87
2023/05/04 04:41:38;;;;;;;13.30;6.63;;;7.60;99.90;;;;;;4989158;28;20035;-87
2023/05/04 04:44:04;;;;;;;14.43;5.30;;;7.60;99.90;;;;;;4990848;28;20045;-86
2023/05/04 04:46:30;;;;;;;14.35;6.95;;;7.60;99.90;;;;;;4992019;28;20038;-86
2023/05/04 04:48:56;;;;;;;11.52;5.45;;;7.60;99.90;;;;;;5009236;28;20050;-86
2023/05/04 04:51:22;;;;;;;12.75;5.88;;;7.60;99.90;;;;;;5008063;28;20049;-86
2023/05/04 04:53:47;;;;;;;14.65;6.60;;;7.60;99.90;;;;;;5008713;28;20030;-86
2023/05/04 04:56:13;;;;;;;14.65;5.57;;;7.60;99.90;;;;;;5008187;28;20073;-86
2023/05/04 04:58:39;;;;;;;13.43;6.05;;;7.70;99.90;;;;;;4991900;28;20686;-86
2023/05/04 05:01:05;;;;;;;12.15;5.55;;;7.70;99.90;;;;;;5008553;28;20048;-86
2023/05/04 05:03:30;;;;;;;16.25;6.07;;;7.70;99.90;;;;;;5008022;28;20165;-86
2023/05/04 05:05:56;;;;;;;12.82;6.03;;;7.70;99.90;;;;;;5008572;28;20045;-86
2023/05/04 05:08:22;;;;;;;12.27;5.97;;;7.70;99.90;;;;;;5008340;28;20069;-87
2023/05/04 05:10:47;;;;;;;16.88;6.45;;;7.70;99.90;;;;;;4991887;28;20046;-87
2023/05/04 05:13:13;;;;;;;13.32;6.00;;;7.70;99.90;;;;;;5008558;28;20050;-86
2023/05/04 05:15:39;;;;;;;14.80;6.22;;;7.70;99.90;;;;;;5008526;28;20034;-86
2023/05/04 05:18:04;;;;;;;10.77;5.55;;;7.80;99.90;;;;;;5009762;28;20396;-86
2023/05/04 05:20:30;;;;;;;18.85;6.32;;;7.80;99.90;;;;;;5012763;28;20053;-87
2023/05/04 05:22:56;;;;;;;12.60;6.28;;;7.80;99.90;;;;;;5012009;28;20029;-87
2023/05/04 05:25:21;;;;;;;13.45;6.65;;;7.80;99.90;;;;;;5011677;28;20046;-87
2023/05/04 05:27:47;;;;;;;15.63;6.68;;;7.80;99.90;;;;;;5025094;28;20404;-87
2023/05/04 05:30:13;;;;;;;10.98;5.57;;;7.80;99.90;;;;;;4997616;28;20129;-87
2023/05/04 05:32:39;;;;;;;11.82;5.88;;;7.90;99.90;;;;;;4995345;28;20088;-87
2023/05/04 05:35:05;;;;;;;12.13;6.00;;;7.90;99.90;;;;;;5012321;28;20042;-87
2023/05/04 05:37:31;;;;;;;16.98;7.55;;;8.00;99.90;;;;;;5012354;28;20044;-87
2023/05/04 05:39:57;;;;;;;12.95;6.15;;;8.00;99.90;;;;;;4995283;28;20462;-86
2023/05/04 05:42:22;;;;;;;16.63;7.45;;;8.00;99.90;;;;;;5010977;28;20055;-87
2023/05/04 05:44:48;;;;;;;13.63;6.10;;;8.00;99.90;;;;;;4993201;28;20049;-87
2023/05/04 05:47:14;;;;;;;13.50;6.32;;;8.10;99.90;;;;;;5010153;28;20061;-86
2023/05/04 05:49:40;;;;;;;12.65;6.90;;;8.10;99.90;;;;;;4993489;28;20052;-86
2023/05/04 05:52:05;;;;;;;12.90;6.25;;;8.10;99.90;;;;;;5005640;28;20057;-86
2023/05/04 05:54:31;;;;;;;13.95;6.60;;;8.20;99.90;;;;;;4992189;28;20484;-86
2023/05/04 05:56:57;;;;;;;14.15;7.07;;;8.20;99.90;;;;;;5010758;28;20049;-86
2023/05/04 05:59:23;;;;;;;14.30;6.55;;;8.30;99.90;;;;;;4986110;28;20041;-86
2023/05/04 06:01:48;;;;;;;15.15;6.22;;;8.30;99.90;;;;;;4994990;28;20042;-87
2023/05/04 06:04:14;;;;;;;13.57;6.47;;;8.40;99.90;;;;;;5010750;28;20037;-87
2023/05/04 06:06:40;;;;;;;12.80;7.05;;;8.40;99.90;;;;;;5010846;28;20059;-87
2023/05/04 06:09:06;;;;;;;14.68;6.88;;;8.50;99.90;;;;;;5011382;28;20056;-87
2023/05/04 06:11:31;;;;;;;12.52;5.85;;;8.60;99.90;;;;;;5002465;28;20050;-87
2023/05/04 06:13:57;;;;;;;12.65;6.45;;;8.60;99.90;;;;;;4994113;28;20042;-87
2023/05/04 06:16:22;;;;;;;14.55;6.60;;;8.70;99.90;;;;;;4994457;28;20053;-87
2023/05/04 06:18:48;;;;;;;13.93;6.70;;;8.80;99.90;;;;;;4994068;28;20048;-86
2023/05/04 06:21:14;;;;;;;12.80;5.97;;;8.80;99.90;;;;;;4994770;28;20092;-87
2023/05/04 06:23:40;;;;;;;14.55;5.90;;;8.90;99.90;;;;;;4994338;28;20510;-87
2023/05/04 06:26:06;;;;;;;13.98;6.47;;;9.00;99.90;;;;;;5009083;28;20034;-87
2023/05/04 06:28:33;;;;;;;12.85;6.60;;;9.10;99.90;;;;;;5010241;28;20050;-87
2023/05/04 06:30:58;;;;;;;13.18;5.88;;;9.10;99.90;;;;;;5010782;28;20092;-87
2023/05/04 06:33:24;;;;;;;12.65;5.75;;;9.20;99.90;;;;;;5001800;28;20045;-87
2023/05/04 06:35:51;;;;;;;14.80;6.85;;;9.20;99.90;;;;;;4993909;28;20488;-86
2023/05/04 06:38:17;;;;;;;12.07;6.18;;;9.30;99.90;;;;;;4993920;28;20037;-87
2023/05/04 06:40:42;;;;;;;13.30;6.32;;;9.30;99.90;;;;;;5010561;28;20056;-87
2023/05/04 06:43:08;;;;;;;14.88;6.40;;;9.40;99.90;;;;;;4994045;28;20461;-87
2023/05/04 06:45:34;;;;;;;14.25;6.43;;;9.50;99.90;;;;;;5010266;28;20252;-87
2023/05/04 06:48:01;;;;;;;13.65;6.07;;;9.50;99.90;;;;;;5010239;28;20507;-87
2023/05/04 06:50:26;;;;;;;13.35;6.20;;;9.60;99.90;;;;;;4982586;28;20106;-87
2023/05/04 06:53:08;;;;;;;13.55;5.95;;;9.70;99.90;;;;;;4974514;28;20663;-87
2023/05/04 06:55:34;;;;;;;12.90;5.88;;;9.80;99.90;;;;;;4998286;28;20034;-86
2023/05/04 06:58:00;;;;;;;13.77;6.40;;;9.90;99.90;;;;;;4993232;28;20604;-86
2023/05/04 07:00:26;;;;;;;13.77;6.53;;;9.90;99.50;;;;;;4992869;28;20044;-86
2023/05/04 07:02:52;;;;;;;13.18;6.35;;;10.00;99.40;;;;;;4992502;28;20045;-86
2023/05/04 07:05:20;;;;;;;13.60;7.18;;;10.10;99.10;;;;;;4994391;28;20053;-87
2023/05/04 07:07:45;;;;;;;12.70;6.43;;;10.20;98.30;;;;;;5009583;28;20087;-87
2023/05/04 07:10:13;;;;;;;13.55;6.45;;;10.30;98.30;;;;;;4993335;28;20038;-87
2023/05/04 07:12:40;;;;;;;14.57;6.93;;;10.40;98.40;;;;;;4993064;28;20484;-87
2023/05/04 07:15:07;;;;;;;14.02;6.95;;;10.50;98.10;;;;;;4977377;28;20037;-87
2023/05/04 07:17:33;;;;;;;14.93;6.35;;;10.60;97.90;;;;;;4990480;28;20057;-86
2023/05/04 07:20:01;;;;;;;13.05;6.25;;;10.70;97.40;;;;;;5022374;28;20035;-87
2023/05/04 07:22:27;;;;;;;11.77;5.43;;;10.80;96.90;;;;;;5006188;28;20096;-87
2023/05/04 07:24:53;;;;;;;15.18;6.50;;;10.80;96.20;;;;;;4990192;28;20050;-87
2023/05/04 07:27:18;;;;;;;15.70;6.18;;;10.90;95.60;;;;;;5008124;28;20089;-87
2023/05/04 07:29:46;;;;;;;14.77;6.53;;;11.00;95.10;;;;;;4993371;28;20124;-87
2023/05/04 07:32:11;;;;;;;13.95;5.60;;;11.00;94.90;;;;;;5009478;28;20045;-87
2023/05/04 07:34:37;;;;;;;12.65;6.10;;;11.10;94.20;;;;;;5009640;28;20045;-87
2023/05/04 07:37:03;;;;;;;11.77;6.07;;;11.10;94.20;;;;;;5009200;28;20426;-87
2023/05/04 07:39:29;;;;;;;13.45;5.78;;;11.20;94.20;;;;;;4992227;28;20064;-87
2023/05/04 07:41:55;;;;;;;16.40;6.35;;;11.30;93.90;;;;;;5000880;28;20040;-87
2023/05/04 07:44:20;;;;;;;13.10;6.35;;;11.40;94.00;;;;;;5001599;28;20045;-86
2023/05/04 07:46:46;;;;;;;12.63;6.55;;;11.50;93.90;;;;;;5015786;28;20041;-87
2023/05/04 07:49:11;;;;;;;14.43;6.18;;;11.60;93.70;;;;;;4998852;28;20038;-87
2023/05/04 07:51:38;;;;;;;11.30;5.88;;;11.70;93.00;;;;;;4984889;28;20046;-88
2023/05/04 07:54:03;;;;;;;12.00;6.22;;;11.70;92.70;;;;;;5005196;28;20046;-87
2023/05/04 07:56:29;;;;;;;14.05;6.43;;;11.80;92.70;;;;;;5025169;28;20092;-88
2023/05/04 07:58:55;;;;;;;15.48;6.78;;;11.90;92.90;;;;;;4992637;28;20034;-87
2023/05/04 08:01:20;;;;;;;14.95;6.53;;;12.00;92.90;;;;;;5008891;28;20451;-87
2023/05/04 08:03:47;;;;;;;11.60;5.63;;;12.10;92.50;;;;;;4991770;28;20514;-88
2023/05/04 08:06:13;;;;;;;14.05;5.95;;;12.20;92.70;;;;;;5008692;28;20041;-87
2023/05/04 08:08:38;;;;;;;14.98;6.03;;;12.30;92.60;;;;;;5008634;28;20187;-88
2023/05/04 08:11:04;;;;;;;11.85;5.65;;;12.40;92.20;;;;;;4989327;28;20420;-88
2023/05/04 08:13:30;;;;;;;14.35;7.00;;;12.50;91.90;;;;;;4993619;28;20042;-87
2023/05/04 08:15:59;;;;;;;15.25;6.35;;;12.60;91.30;;;;;;5008592;28;20407;-88
2023/05/04 08:18:26;;;;;;;14.23;6.63;;;12.70;91.20;;;;;;5008352;28;20116;-88
2023/05/04 08:20:52;;;;;;;13.93;6.75;;;12.80;91.00;;;;;;5008090;28;20100;-88
2023/05/04 08:23:18;;;;;;;10.40;5.63;;;13.00;90.60;;;;;;5008517;28;20038;-88
2023/05/04 08:25:43;;;;;;;12.98;6.25;;;13.10;90.20;;;;;;5008283;28;20138;-87
2023/05/04 08:28:09;;;;;;;13.35;8.35;;;13.20;89.70;;;;;;5008259;28;20499;-88
2023/05/04 08:30:36;;;;;;;11.63;5.97;;;13.30;88.20;;;;;;5008104;28;20029;-88
2023/05/04 08:33:02;;;;;;;14.77;6.15;;;13.40;87.40;;;;;;4991914;28;20042;-88
2023/05/04 08:35:27;;;;;;;12.88;6.15;;;13.50;87.20;;;;;;4991865;28;20060;-88
2023/05/04 08:37:53;;;;;;;12.63;8.25;;;13.70;87.50;;;;;;5007803;28;20070;-88
2023/05/04 08:40:19;;;;;;;13.30;5.70;;;13.80;86.70;;;;;;4992073;28;20136;-88
2023/05/04 08:42:49;;;;;;;11.40;6.13;;;14.00;86.70;;;;;;4991999;28;20045;-88
2023/05/04 08:45:15;;;;;;;14.35;6.05;;;14.10;86.00;;;;;;4991067;28;20045;-88
2023/05/04 08:47:42;;;;;;;12.13;7.93;;;14.20;85.00;;;;;;4992407;28;20396;-88
2023/05/04 08:50:09;;;;;;;11.65;5.47;;;14.30;83.30;;;;;;5007155;28;20527;-88
2023/05/04 08:52:40;;;;;;;10.77;5.57;;;14.50;82.80;;;;;;4993640;28;20042;-88
2023/05/04 08:55:09;;;;;;;11.30;6.32;;;14.50;82.00;;;;;;5012082;28;20396;-88
2023/05/04 08:57:35;;;;;;;13.75;8.00;;;14.60;82.00;;;;;;5011998;28;20515;-88
2023/05/04 09:00:01;;;;;;;16.15;7.20;;;14.70;80.30;;;;;;5008423;28;20041;-88
2023/05/04 09:02:28;;;;;;;13.05;7.22;;;14.90;79.90;;;;;;5011494;28;20104;-88
2023/05/04 09:04:54;;;;;;;14.85;6.53;;;15.00;78.70;;;;;;4995466;28;20034;-89
2023/05/04 09:07:20;;;;;;;12.85;7.90;;;15.10;78.90;;;;;;5012171;28;20136;-89
2023/05/04 09:09:49;;;;;;;13.77;8.07;;;15.10;78.50;;;;;;4995749;28;20283;-88
2023/05/04 09:12:15;;;;;;;12.18;6.20;;;15.30;78.60;;;;;;4995924;28;20038;-88
2023/05/04 09:14:41;;;;;;;12.30;5.05;;;15.40;77.30;;;;;;5012780;28;20038;-88
2023/05/04 09:17:24;;;;;;;13.10;6.18;;;15.40;76.90;;;;;;5012342;28;20099;-88
2023/05/04 09:19:57;;;;;;;15.25;6.68;;;15.50;75.70;;;;;;4995874;28;20492;-88
2023/05/04 09:22:23;;;;;;;11.57;6.72;;;15.60;74.70;;;;;;4996004;28;20034;-88
2023/05/04 09:24:49;;;;;;;11.38;6.30;;;15.70;75.20;;;;;;4987143;28;20037;-88
2023/05/04 09:27:16;;;;;;;10.80;6.57;;;15.80;75.50;;;;;;4995390;28;20033;-89
2023/05/04 09:29:43;;;;;;;12.60;6.90;;;15.80;74.60;;;;;;5011275;28;20073;-88
2023/05/04 09:32:14;;;;;;;13.85;7.72;;;15.90;73.80;;;;;;5011115;28;20088;-88
2023/05/04 09:34:50;;;;;;;11.55;5.97;;;16.00;73.30;;;;;;5011239;28;20088;-88
2023/05/04 09:37:17;;;;;;;13.63;6.28;;;16.00;73.60;;;;;;5011055;28;20034;-88
2023/05/04 09:39:54;;;;;;;12.15;6.60;;;16.10;73.60;;;;;;4995060;28;20037;-88
2023/05/04 09:42:20;;;;;;;13.60;7.00;;;16.20;73.30;;;;;;4994716;28;20084;-88
2023/05/04 09:44:58;;;;;;;11.80;6.70;;;16.40;73.90;;;;;;4995917;28;20076;-88
2023/05/04 09:47:33;;;;;;;13.23;6.57;;;16.60;74.20;;;;;;5011609;28;20060;-88
2023/05/04 09:50:09;;;;;;;14.15;7.10;;;16.80;71.70;;;;;;5011281;28;20044;-89
2023/05/04 09:52:36;;;;;;;11.90;6.30;;;16.90;70.10;;;;;;4995853;28;20045;-89
2023/05/04 09:55:03;;;;;;;11.77;6.07;;;17.00;69.40;;;;;;4994563;28;20030;-89
2023/05/04 09:57:29;;;;;;;12.43;6.93;;;17.20;70.60;;;;;;4995567;28;20567;-89
2023/05/04 09:59:55;;;;;;;12.20;6.63;;;17.30;70.90;;;;;;4994551;28;20037;-89
2023/05/04 10:02:21;;;;;;;11.75;5.97;;;17.50;69.50;;;;;;4994298;28;20069;-89
2023/05/04 10:04:48;;;;;;;11.38;6.20;;;17.60;68.10;;;;;;4994880;28;20053;-89
2023/05/04 10:07:15;;;;;;;12.02;6.55;;;17.80;67.80;;;;;;5002055;28;20061;-89
2023/05/04 10:09:41;;;;;;;10.90;6.05;;;17.90;67.30;;;;;;4995225;28;20030;-89
2023/05/04 10:12:07;;;;;;;10.95;6.25;;;18.00;68.10;;;;;;5010849;28;20036;-89
2023/05/04 10:14:34;;;;;;;10.27;5.70;;;18.10;66.80;;;;;;4980996;28;20042;-89
2023/05/04 10:17:20;;;;;;;11.30;6.32;;;18.20;66.00;;;;;;4992171;28;20073;-89
2023/05/04 10:20:16;;;;;;;12.15;6.25;;;18.40;66.40;;;;;;4994569;28;20073;-89
2023/05/04 10:23:08;;;;;;;10.98;5.53;;;18.50;66.20;;;;;;5011815;28;20077;-89
2023/05/04 10:26:02;;;;;;;9.45;5.53;;;18.60;66.20;;;;;;5010602;28;20096;-89
2023/05/04 10:28:40;;;;;;;10.30;4.90;;;18.70;64.70;;;;;;5011253;28;20041;-89
2023/05/04 10:31:06;;;;;;;11.73;5.25;;;18.90;64.70;;;;;;4993786;28;20122;-89
2023/05/04 10:33:42;;;;;;;11.48;5.45;;;18.90;63.00;;;;;;4995098;28;20481;-89
2023/05/04 10:36:08;;;;;;;9.48;4.60;;;19.00;62.70;;;;;;5010512;28;20045;-89
2023/05/04 10:38:35;;;;;;;9.63;5.10;;;19.00;62.30;;;;;;4994891;28;20038;-89
2023/05/04 10:41:15;;;;;;;11.90;4.78;;;19.10;62.00;;;;;;4994402;28;20048;-90
2023/05/04 10:43:41;;;;;;;10.93;4.82;;;19.20;61.40;;;;;;4985659;28;20091;-89
2023/05/04 10:46:20;;;;;;;10.50;5.10;;;19.30;61.70;;;;;;5010660;28;20038;-89
2023/05/04 10:48:46;;;;;;;10.65;4.90;;;19.40;60.00;;;;;;4989535;28;20420;-89
2023/05/04 10:51:23;;;;;;;9.93;4.93;;;19.40;59.70;;;;;;5007268;28;20042;-89
2023/05/04 10:53:50;;;;;;;9.02;4.60;;;19.40;59.20;;;;;;5023734;28;20046;-88
2023/05/04 10:56:20;;;;;;;10.25;4.60;;;19.50;59.80;;;;;;5006302;28;20076;-89
2023/05/04 10:58:46;;;;;;;10.95;4.22;;;19.60;58.60;;;;;;4991181;28;20057;-89
2023/05/04 11:01:12;;;;;;;10.25;4.50;;;19.70;59.80;;;;;;5000328;28;20049;-89
2023/05/04 11:03:42;;;;;;;12.02;4.57;;;19.70;59.50;;;;;;5010733;28;20046;-89
2023/05/04 11:06:16;;;;;;;11.32;5.10;;;19.90;59.20;;;;;;5010644;28;20507;-89
2023/05/04 11:08:43;;;;;;;9.88;4.65;;;20.00;58.90;;;;;;4994058;28;20125;-89
2023/05/04 11:11:08;;;;;;;8.70;4.85;;;20.00;58.50;;;;;;5022849;28;20038;-88
2023/05/04 11:13:39;;;;;;;10.10;5.35;;;20.10;58.70;;;;;;5006148;28;20054;-89
2023/05/04 11:16:05;;;;;;;8.73;4.10;;;20.20;58.30;;;;;;4990033;28;20042;-89
2023/05/04 11:18:36;;;;;;;11.35;4.65;;;20.30;59.10;;;;;;4995441;28;20404;-88
2023/05/04 11:21:02;;;;;;;8.82;3.95;;;20.40;58.00;;;;;;4991696;28;20038;-89
2023/05/04 11:23:28;;;;;;;11.77;4.35;;;20.50;56.90;;;;;;5026133;28;20048;-88
2023/05/04 11:25:54;;;;;;;11.95;4.85;;;20.70;55.50;;;;;;4991813;28;20597;-88
2023/05/04 11:28:31;;;;;;;12.02;4.85;;;20.80;55.30;;;;;;4992701;28;20073;-88
2023/05/04 11:30:56;;;;;;;10.68;4.53;;;20.90;55.80;;;;;;5006862;28;20464;-89
2023/05/04 11:33:22;;;;;;;14.48;4.32;;;21.10;56.40;;;;;;5009505;28;20563;-89
2023/05/04 11:35:48;;;;;;;10.30;4.45;;;21.20;55.20;;;;;;5010386;28;20040;-88
2023/05/04 11:38:20;;;;;;;10.00;4.03;;;21.30;55.20;;;;;;5005925;28;20427;-88
2023/05/04 11:40:49;;;;;;;11.20;3.67;;;21.50;55.90;;;;;;4989647;28;20053;-89
2023/05/04 11:43:16;;;;;;;8.35;3.80;;;21.60;56.10;;;;;;4998439;28;20320;-89
2023/05/04 11:45:42;;;;;;;7.53;3.53;;;21.80;55.40;;;;;;5009235;28;20041;-89
2023/05/04 11:48:08;;;;;;;8.65;3.80;;;21.90;55.10;;;;;;5009220;28;20040;-90
2023/05/04 11:50:34;;;;;;;7.90;3.35;;;22.10;54.60;;;;;;4997201;28;20062;-89
2023/05/04 11:53:07;;;;;;;7.47;3.40;;;22.20;53.60;;;;;;4990434;28;20042;-89
2023/05/04 11:55:34;;;;;;;9.98;3.83;;;22.30;53.00;;;;;;5004236;28;20057;-89
2023/05/04 11:58:02;;;;;;;11.95;3.90;;;22.30;52.40;;;;;;5009366;28;20038;-90
2023/05/04 12:00:43;;;;;;;8.18;3.30;;;22.40;52.40;;;;;;4992403;28;20042;-89
2023/05/04 12:03:13;;;;;;;9.90;3.30;;;22.40;50.90;;;;;;4978720;28;20034;-89
2023/05/04 12:05:52;;;;;;;8.77;2.60;;;22.40;51.90;;;;;;4973353;28;20046;-89
2023/05/04 12:08:36;;;;;;;7.00;2.50;;;22.40;52.60;;;;;;4989193;28;20038;-90
2023/05/04 12:11:15;;;;;;;8.10;2.88;;;22.40;52.20;;;;;;5005349;28;20623;-89
2023/05/04 12:13:42;;;;;;;7.45;3.03;;;22.60;51.70;;;;;;5021619;28;20046;-89
2023/05/04 12:16:08;;;;;;;8.57;3.25;;;22.70;52.50;;;;;;4989779;28;20042;-90
2023/05/04 12:18:34;;;;;;;11.82;3.50;;;22.70;51.40;;;;;;5022182;28;20088;-89
2023/05/04 12:21:18;;;;;;;9.90;3.80;;;22.70;51.20;;;;;;5005435;28;20042;-89
2023/05/04 12:23:45;;;;;;;8.95;3.13;;;22.80;50.20;;;;;;5006009;28;20569;-89
2023/05/04 12:26:11;;;;;;;7.78;3.47;;;22.80;51.10;;;;;;4988768;28;20097;-89
2023/05/04 12:28:39;;;;;;;9.05;3.38;;;22.90;50.00;;;;;;5010282;28;20140;-90
2023/05/04 12:31:05;;;;;;;15.30;3.72;;;22.90;49.00;;;;;;4996410;28;20049;-89
2023/05/04 12:33:31;;;;;;;11.77;3.40;;;22.80;49.40;;;;;;4979236;28;20116;-89
2023/05/04 12:36:00;;;;;;;9.07;3.53;;;22.80;49.50;;;;;;4993127;28;20714;-89
2023/05/04 12:38:27;;;;;;;7.47;2.97;;;22.90;49.00;;;;;;5012295;28;20042;-90
2023/05/04 12:40:53;;;;;;;11.55;4.00;;;22.90;50.20;;;;;;4995831;28;20041;-89
2023/05/04 12:43:21;;;;;;;7.03;3.10;;;23.10;50.40;;;;;;4996821;28;20140;-90